createdAt,value
2019-05-02T00:02:24.113Z,9.04
2019-05-02T00:04:55.917Z,9.06
2019-05-02T00:07:25.031Z,8.95
2019-05-02T00:09:54.742Z,8.88
2019-05-02T00:12:25.593Z,8.91
2019-05-02T00:14:56.640Z,8.85
2019-05-02T00:17:27.546Z,8.93
2019-05-02T00:19:56.834Z,8.87
2019-05-02T00:22:26.114Z,8.74
2019-05-02T00:24:55.422Z,8.72
2019-05-02T00:27:24.725Z,8.74
2019-05-02T00:29:58.514Z,8.67
2019-05-02T00:32:25.042Z,8.62
2019-05-02T00:34:54.420Z,8.72
2019-05-02T00:37:24.638Z,8.65
2019-05-02T00:39:54.783Z,8.63
2019-05-02T00:42:24.222Z,8.60
2019-05-02T00:44:53.442Z,8.56
2019-05-02T00:47:42.342Z,8.52
2019-05-02T00:50:11.285Z,8.51
2019-05-02T00:52:41.451Z,8.52
2019-05-02T00:55:10.849Z,8.51
2019-05-02T00:57:40.147Z,8.38
2019-05-02T01:00:13.352Z,8.27
2019-05-02T01:02:47.182Z,8.32
2019-05-02T01:05:16.447Z,8.30
2019-05-02T01:07:45.765Z,8.36
2019-05-02T01:10:17.241Z,8.34
2019-05-02T01:12:46.269Z,8.31
2019-05-02T01:15:15.691Z,8.37
2019-05-02T01:17:45.011Z,8.31
2019-05-02T01:20:14.304Z,8.29
2019-05-02T01:22:47.246Z,8.25
2019-05-02T01:25:15.691Z,8.21
2019-05-02T01:28:03.466Z,8.26
2019-05-02T01:30:57.554Z,8.20
2019-05-02T01:33:56.805Z,8.17
2019-05-02T01:36:30.461Z,8.20
2019-05-02T01:39:02.884Z,8.19
2019-05-02T01:41:31.108Z,8.20
2019-05-02T01:44:01.640Z,8.14
2019-05-02T01:46:30.886Z,8.10
2019-05-02T01:49:00.186Z,8.06
2019-05-02T01:51:29.456Z,8.15
2019-05-02T01:53:58.763Z,8.01
2019-05-02T01:56:28.594Z,7.99
2019-05-02T01:58:59.003Z,7.96
2019-05-02T02:01:28.437Z,7.95
2019-05-02T02:03:57.682Z,7.92
2019-05-02T02:06:26.964Z,7.94
2019-05-02T02:08:56.222Z,7.96
2019-05-02T02:11:28.436Z,8.01
2019-05-02T02:13:56.643Z,7.99
2019-05-02T02:16:25.968Z,7.93
2019-05-02T02:19:05.404Z,7.93
2019-05-02T02:21:47.601Z,8.01
2019-05-02T02:24:25.121Z,8.01
2019-05-02T02:26:55.379Z,7.96
2019-05-02T02:29:24.798Z,8.01
2019-05-02T02:31:54.126Z,8.06
2019-05-02T02:34:29.107Z,7.92
2019-05-02T02:36:54.527Z,7.94
2019-05-02T02:39:23.837Z,7.95
2019-05-02T02:41:54.216Z,8.00
2019-05-02T02:44:41.983Z,8.00
2019-05-02T02:47:18.891Z,7.96
2019-05-02T02:49:42.387Z,7.87
2019-05-02T02:52:11.679Z,7.79
2019-05-02T02:54:43.200Z,7.74
2019-05-02T02:57:20.631Z,7.78
2019-05-02T02:59:42.978Z,7.77
2019-05-02T03:02:12.574Z,7.77
2019-05-02T03:04:44.164Z,7.80
2019-05-02T03:07:24.193Z,7.82
2019-05-02T03:09:44.100Z,7.80
2019-05-02T03:12:36.215Z,7.78
2019-05-02T03:15:03.868Z,7.68
2019-05-02T03:17:33.131Z,7.73
2019-05-02T03:20:03.910Z,7.76
2019-05-02T03:22:34.924Z,7.74
2019-05-02T03:25:04.667Z,7.74
2019-05-02T03:27:37.502Z,7.75
2019-05-02T03:30:05.122Z,7.63
2019-05-02T03:32:36.145Z,7.70
2019-05-02T03:35:05.535Z,7.74
2019-05-02T03:37:34.801Z,7.77
2019-05-02T03:40:04.625Z,7.77
2019-05-02T03:42:43.677Z,7.80
2019-05-02T03:45:05.572Z,7.76
2019-05-02T03:47:36.938Z,7.74
2019-05-02T03:50:09.458Z,7.76
2019-05-02T03:52:43.675Z,7.70
2019-05-02T03:55:08.891Z,7.70
2019-05-02T03:57:41.878Z,7.63
2019-05-02T04:00:13.564Z,7.63
2019-05-02T04:02:41.169Z,7.69
2019-05-02T04:05:10.689Z,7.61
2019-05-02T04:07:42.122Z,7.66
2019-05-02T04:10:19.649Z,7.64
2019-05-02T04:12:45.647Z,7.61
2019-05-02T04:15:15.062Z,7.58
2019-05-02T04:17:44.833Z,7.67
2019-05-02T04:20:14.163Z,7.65
2019-05-02T04:22:49.097Z,7.63
2019-05-02T04:25:14.883Z,7.59
2019-05-02T04:27:44.279Z,7.69
2019-05-02T04:30:14.194Z,7.77
2019-05-02T04:32:49.564Z,7.76
2019-05-02T04:35:14.864Z,7.78
2019-05-02T04:37:44.099Z,7.89
2019-05-02T04:40:13.372Z,7.97
2019-05-02T04:42:42.603Z,8.06
2019-05-02T04:45:25.232Z,8.00
2019-05-02T04:47:42.859Z,8.09
2019-05-02T04:50:18.144Z,8.19
2019-05-02T04:52:48.393Z,8.29
2019-05-02T04:55:22.936Z,8.31
2019-05-02T04:57:50.486Z,8.31
2019-05-02T05:00:20.490Z,8.35
2019-05-02T05:02:52.947Z,8.55
2019-05-02T05:05:25.644Z,8.62
2019-05-02T05:07:51.760Z,8.75
2019-05-02T05:10:21.053Z,8.88
2019-05-02T05:12:50.644Z,8.92
2019-05-02T05:15:35.826Z,8.88
2019-05-02T05:17:50.928Z,9.03
2019-05-02T05:20:20.297Z,9.11
2019-05-02T05:22:49.592Z,9.34
2019-05-02T05:25:24.396Z,9.59
2019-05-02T05:27:58.712Z,9.73
2019-05-02T05:30:24.763Z,9.86
2019-05-02T05:32:54.242Z,9.97
2019-05-02T05:35:23.551Z,10.07
2019-05-02T05:37:53.399Z,10.16
2019-05-02T05:40:27.567Z,10.08
2019-05-02T05:42:53.809Z,10.15
2019-05-02T05:45:23.306Z,9.94
2019-05-02T05:47:57.487Z,10.03
2019-05-02T05:50:23.623Z,10.35
2019-05-02T05:52:52.981Z,10.38
2019-05-02T05:55:24.430Z,10.36
2019-05-02T05:57:59.966Z,10.23
2019-05-02T06:00:24.305Z,10.49
2019-05-02T06:03:01.404Z,10.36
2019-05-02T06:05:24.735Z,10.73
2019-05-02T06:07:54.110Z,10.53
2019-05-02T06:10:23.350Z,10.48
2019-05-02T06:12:52.720Z,10.67
2019-05-02T06:15:21.962Z,10.85
2019-05-02T06:17:51.325Z,10.77
2019-05-02T06:20:20.613Z,10.96
2019-05-02T06:22:49.860Z,11.00
2019-05-02T06:25:32.818Z,10.97
2019-05-02T06:27:51.661Z,11.24
2019-05-02T06:30:21.043Z,11.35
2019-05-02T06:32:55.054Z,11.43
2019-05-02T06:35:22.399Z,11.06
2019-05-02T06:37:52.072Z,11.41
2019-05-02T06:40:21.291Z,11.43
2019-05-02T06:42:50.573Z,11.30
2019-05-02T06:45:20.012Z,11.53
2019-05-02T06:47:49.327Z,11.73
2019-05-02T06:50:18.672Z,11.71
2019-05-02T06:52:47.990Z,11.78
2019-05-02T06:55:17.311Z,11.99
2019-05-02T06:57:46.614Z,12.07
2019-05-02T07:00:16.782Z,12.15
2019-05-02T07:02:46.035Z,12.13
2019-05-02T07:05:15.469Z,12.42
2019-05-02T07:07:44.804Z,12.76
2019-05-02T07:10:14.390Z,12.37
2019-05-02T07:12:46.145Z,12.89
2019-05-02T07:15:48.284Z,12.95
2019-05-02T07:18:17.321Z,12.28
2019-05-02T07:20:46.593Z,12.83
2019-05-02T07:23:18.199Z,13.40
2019-05-02T07:25:47.149Z,13.90
2019-05-02T07:28:16.419Z,13.56
2019-05-02T07:30:45.726Z,13.08
2019-05-02T07:33:14.994Z,13.47
2019-05-02T07:35:44.266Z,14.08
2019-05-02T07:38:13.560Z,13.31
2019-05-02T07:40:42.868Z,13.42
2019-05-02T07:43:13.509Z,13.32
2019-05-02T07:45:45.227Z,13.88
2019-05-02T07:48:17.699Z,13.76
2019-05-02T07:50:46.572Z,13.76
2019-05-02T07:53:16.459Z,13.96
2019-05-02T07:55:48.917Z,13.89
2019-05-02T07:58:16.881Z,13.66
2019-05-02T08:00:46.186Z,13.76
2019-05-02T08:03:15.448Z,13.77
2019-05-02T08:05:45.126Z,14.00
2019-05-02T08:08:14.396Z,14.18
2019-05-02T08:10:43.664Z,14.30
2019-05-02T08:13:17.455Z,14.46
2019-05-02T08:15:45.590Z,14.02
2019-05-02T08:18:15.250Z,14.57
2019-05-02T08:20:44.550Z,14.64
2019-05-02T08:23:13.867Z,14.53
2019-05-02T08:25:45.418Z,14.57
2019-05-02T08:28:21.801Z,14.78
2019-05-02T08:30:53.837Z,14.98
2019-05-02T08:33:23.189Z,15.70
2019-05-02T08:35:52.447Z,15.45
2019-05-02T08:38:21.773Z,15.21
2019-05-02T08:40:51.109Z,15.25
2019-05-02T08:43:20.346Z,15.09
2019-05-02T08:45:49.632Z,14.99
2019-05-02T08:48:18.912Z,14.24
2019-05-02T08:50:48.339Z,14.33
2019-05-02T08:53:19.676Z,14.50
2019-05-02T08:55:48.634Z,14.92
2019-05-02T08:58:17.934Z,15.26
2019-05-02T09:01:13.247Z,15.06
2019-05-02T09:03:54.591Z,14.89
2019-05-02T09:06:10.435Z,15.31
2019-05-02T09:08:39.724Z,15.28
2019-05-02T09:11:14.199Z,15.52
2019-05-02T09:13:42.054Z,15.75
2019-05-02T09:16:12.059Z,15.70
2019-05-02T09:18:50.575Z,15.61
2019-05-02T09:21:12.600Z,15.31
2019-05-02T09:23:43.894Z,15.78
2019-05-02T09:26:12.882Z,15.74
2019-05-02T09:28:42.349Z,15.74
2019-05-02T09:31:13.216Z,15.43
2019-05-02T09:33:46.792Z,15.46
2019-05-02T09:36:13.540Z,15.78
2019-05-02T09:38:42.840Z,15.61
2019-05-02T09:41:18.770Z,15.81
2019-05-02T09:43:43.210Z,16.00
2019-05-02T09:46:16.508Z,16.18
2019-05-02T09:48:43.613Z,15.94
2019-05-02T09:51:17.434Z,16.31
2019-05-02T09:53:43.990Z,16.36
2019-05-02T09:56:13.421Z,16.24
2019-05-02T09:58:44.251Z,16.47
2019-05-02T10:01:35.538Z,16.38
2019-05-02T10:04:05.302Z,16.45
2019-05-02T10:06:34.527Z,16.52
2019-05-02T10:09:06.030Z,17.15
2019-05-02T10:11:35.368Z,17.54
2019-05-02T10:14:05.317Z,17.05
2019-05-02T10:16:34.696Z,17.31
2019-05-02T10:19:09.245Z,16.97
2019-05-02T10:21:35.114Z,16.74
2019-05-02T10:24:04.497Z,16.55
2019-05-02T10:26:33.743Z,17.37
2019-05-02T10:29:03.053Z,17.88
2019-05-02T10:31:37.321Z,18.42
2019-05-02T10:34:03.463Z,18.77
2019-05-02T10:36:32.698Z,18.45
2019-05-02T10:39:02.056Z,18.59
2019-05-02T10:41:53.448Z,18.40
2019-05-02T10:44:22.819Z,18.26
2019-05-02T10:46:56.761Z,18.64
2019-05-02T10:49:33.952Z,18.63
2019-05-02T10:52:03.304Z,18.54
2019-05-02T10:54:36.436Z,18.88
2019-05-02T10:57:03.570Z,18.85
2019-05-02T10:59:32.949Z,18.51
2019-05-02T11:02:36.281Z,18.60
2019-05-02T11:05:12.012Z,18.61
2019-05-02T11:07:41.988Z,19.42
2019-05-02T11:10:12.820Z,19.36
2019-05-02T11:13:01.900Z,19.06
2019-05-02T11:15:59.155Z,19.77
2019-05-02T11:18:40.164Z,19.28
2019-05-02T11:21:06.765Z,19.13
2019-05-02T11:23:32.848Z,18.96
2019-05-02T11:26:02.349Z,19.33
2019-05-02T11:28:32.363Z,18.95
2019-05-02T11:31:06.440Z,19.50
2019-05-02T11:33:32.917Z,19.33
2019-05-02T11:36:02.620Z,19.14
2019-05-02T11:38:32.472Z,19.68
2019-05-02T11:41:02.766Z,19.87
2019-05-02T11:43:32.666Z,19.75
2019-05-02T11:46:07.091Z,19.59
2019-05-02T11:48:33.079Z,19.67
2019-05-02T11:51:02.758Z,19.47
2019-05-02T11:53:32.655Z,19.62
2019-05-02T11:56:03.675Z,19.77
2019-05-02T11:58:33.197Z,19.21
2019-05-02T12:01:05.278Z,19.33
2019-05-02T12:03:38.348Z,19.51
2019-05-02T12:06:12.231Z,19.31
2019-05-02T12:08:39.514Z,19.38
2019-05-02T12:11:15.970Z,18.99
2019-05-02T12:13:42.667Z,19.28
2019-05-02T12:16:14.797Z,19.68
2019-05-02T12:18:44.297Z,20.06
2019-05-02T12:21:13.774Z,20.36
2019-05-02T12:23:43.056Z,20.71
2019-05-02T12:26:12.468Z,20.55
2019-05-02T12:28:42.966Z,20.59
2019-05-02T12:31:26.600Z,20.24
2019-05-02T12:33:56.426Z,20.30
2019-05-02T12:36:25.712Z,20.70
2019-05-02T12:38:55.026Z,19.99
2019-05-02T12:41:25.308Z,20.04
2019-05-02T12:43:54.894Z,19.79
2019-05-02T12:46:24.315Z,19.57
2019-05-02T12:48:53.684Z,19.43
2019-05-02T12:51:22.917Z,20.07
2019-05-02T12:53:52.985Z,20.32
2019-05-02T12:56:23.018Z,20.20
2019-05-02T12:58:53.071Z,20.90
2019-05-02T13:01:22.614Z,20.98
2019-05-02T13:04:13.692Z,21.13
2019-05-02T13:06:43.034Z,21.18
2019-05-02T13:09:13.094Z,19.98
2019-05-02T13:12:19.848Z,20.51
2019-05-02T13:14:49.287Z,20.68
2019-05-02T13:17:18.545Z,20.04
2019-05-02T13:19:56.235Z,19.20
2019-05-02T13:22:41.962Z,19.28
2019-05-02T13:25:14.624Z,19.08
2019-05-02T13:27:47.962Z,18.88
2019-05-02T13:30:41.011Z,19.13
2019-05-02T13:33:05.003Z,19.07
2019-05-02T13:35:43.984Z,18.54
2019-05-02T13:38:14.882Z,19.00
2019-05-02T13:40:45.148Z,18.44
2019-05-02T13:43:14.800Z,18.87
2019-05-02T13:46:09.750Z,18.12
2019-05-02T13:48:39.401Z,17.52
2019-05-02T13:51:08.697Z,17.49
2019-05-02T13:53:47.016Z,17.06
2019-05-02T13:56:46.384Z,17.28
2019-05-02T13:59:16.322Z,17.03
2019-05-02T14:01:47.572Z,16.72
2019-05-02T14:04:16.894Z,16.73
2019-05-02T14:06:46.424Z,16.28
2019-05-02T14:09:37.632Z,16.23
2019-05-02T14:12:32.146Z,16.50
2019-05-02T14:15:03.001Z,16.15
2019-05-02T14:17:32.763Z,16.28
2019-05-02T14:20:10.741Z,16.01
2019-05-02T14:22:33.126Z,16.51
2019-05-02T14:25:02.442Z,15.91
2019-05-02T14:27:32.182Z,16.00
2019-05-02T14:30:02.426Z,16.23
2019-05-02T14:32:32.906Z,16.56
2019-05-02T14:35:28.330Z,16.65
2019-05-02T14:38:13.940Z,16.51
2019-05-02T14:40:54.838Z,16.61
2019-05-02T14:43:44.512Z,17.07
2019-05-02T14:46:13.019Z,16.88
2019-05-02T14:48:45.236Z,17.45
2019-05-02T14:51:16.569Z,18.00
2019-05-02T14:53:44.950Z,18.48
2019-05-02T14:56:19.815Z,18.53
2019-05-02T14:58:49.196Z,18.13
2019-05-02T15:01:22.624Z,17.68
2019-05-02T15:03:49.753Z,18.12
2019-05-02T15:06:19.022Z,18.30
2019-05-02T15:08:48.416Z,18.03
2019-05-02T15:11:17.729Z,16.86
2019-05-02T15:13:47.020Z,17.00
2019-05-02T15:16:17.765Z,16.85
2019-05-02T15:18:52.063Z,16.52
2019-05-02T15:21:22.799Z,16.22
2019-05-02T15:23:54.224Z,15.80
2019-05-02T15:26:26.258Z,15.82
2019-05-02T15:28:54.352Z,15.93
2019-05-02T15:31:31.600Z,15.89
2019-05-02T15:34:06.801Z,15.81
2019-05-02T15:36:37.121Z,15.74
2019-05-02T15:41:44.925Z,13.63
2019-05-02T15:44:12.756Z,13.52
2019-05-02T15:46:42.487Z,13.36
2019-05-02T15:49:12.360Z,13.61
2019-05-02T15:51:43.658Z,13.52
2019-05-02T15:54:13.070Z,13.31
2019-05-02T15:57:00.316Z,13.75
2019-05-02T15:59:46.197Z,13.76
2019-05-02T16:02:17.702Z,14.02
2019-05-02T16:04:47.823Z,14.11
2019-05-02T16:07:17.139Z,13.88
2019-05-02T16:09:46.443Z,14.10
2019-05-02T16:12:15.808Z,14.16
2019-05-02T16:14:45.173Z,14.50
2019-05-02T16:17:17.641Z,14.54
2019-05-02T16:19:53.124Z,14.53
2019-05-02T16:22:23.633Z,14.36
2019-05-02T16:24:53.478Z,14.55
2019-05-02T16:27:42.147Z,14.26
2019-05-02T16:30:13.402Z,14.53
2019-05-02T16:32:46.539Z,14.67
2019-05-02T16:35:17.554Z,14.45
2019-05-02T16:37:51.615Z,14.75
2019-05-02T16:40:22.248Z,14.87
2019-05-02T16:42:49.286Z,14.74
2019-05-02T16:45:19.486Z,14.50
2019-05-02T16:47:49.622Z,14.70
2019-05-02T16:50:22.731Z,14.54
2019-05-02T16:52:53.080Z,14.62
2019-05-02T16:55:26.638Z,14.82
2019-05-02T16:57:56.816Z,14.64
2019-05-02T17:00:26.550Z,14.82
2019-05-02T17:02:55.876Z,14.92
2019-05-02T17:05:25.268Z,15.00
2019-05-02T17:08:18.607Z,15.13
2019-05-02T17:10:59.371Z,14.93
2019-05-02T17:13:34.219Z,15.03
2019-05-02T17:16:06.883Z,14.89
2019-05-02T17:18:32.626Z,15.03
2019-05-02T17:21:02.125Z,14.82
2019-05-02T17:23:32.871Z,14.90
2019-05-02T17:26:02.107Z,14.77
2019-05-02T17:28:31.841Z,14.71
2019-05-02T17:31:01.331Z,14.64
2019-05-02T17:33:32.318Z,14.82
2019-05-02T17:36:02.195Z,14.75
2019-05-02T17:38:31.539Z,14.88
2019-05-02T17:41:06.470Z,14.93
2019-05-02T17:43:32.948Z,15.03
2019-05-02T17:46:07.417Z,15.00
2019-05-02T17:48:34.810Z,14.73
2019-05-02T17:51:22.842Z,14.74
2019-05-02T17:53:52.403Z,14.70
2019-05-02T18:00:18.230Z,14.66
2019-05-02T18:03:52.032Z,14.57
2019-05-02T18:06:32.783Z,14.72
2019-05-02T18:08:56.455Z,14.58
2019-05-02T18:11:29.737Z,14.50
2019-05-02T18:14:18.960Z,14.64
2019-05-02T18:16:41.980Z,14.62
2019-05-02T18:22:34.655Z,14.60
2019-05-02T18:25:26.711Z,14.58
2019-05-02T18:28:02.282Z,14.68
2019-05-02T18:30:34.897Z,14.55
2019-05-02T18:33:07.093Z,14.41
2019-05-02T18:35:37.336Z,14.51
2019-05-02T18:39:42.592Z,14.45
2019-05-02T18:42:09.158Z,14.37
2019-05-02T18:44:53.053Z,14.26
2019-05-02T18:47:24.683Z,14.29
2019-05-02T18:50:04.387Z,14.28
2019-05-02T18:52:36.325Z,14.23
2019-05-02T18:54:58.646Z,14.05
2019-05-02T18:57:29.616Z,14.04
2019-05-02T18:59:59.205Z,14.14
2019-05-02T19:06:21.960Z,14.10
2019-05-02T19:08:52.213Z,13.94
2019-05-02T19:11:22.168Z,13.79
2019-05-02T19:13:54.890Z,13.79
2019-05-02T19:16:28.464Z,13.72
2019-05-02T19:18:57.432Z,13.88
2019-05-02T19:21:42.850Z,13.93
2019-05-02T19:24:13.093Z,13.94
2019-05-02T19:26:49.268Z,13.92
2019-05-02T19:29:27.727Z,13.89
2019-05-02T19:31:59.096Z,13.96
2019-05-02T19:34:28.401Z,13.93
2019-05-02T19:37:02.548Z,13.81
2019-05-02T19:39:32.082Z,13.77
2019-05-02T19:42:01.807Z,13.68
2019-05-02T19:44:33.947Z,13.67
2019-05-02T19:47:02.674Z,13.63
2019-05-02T19:49:32.885Z,13.54
2019-05-02T19:52:02.423Z,13.29
2019-05-02T19:54:39.339Z,13.18
2019-05-02T19:57:03.811Z,13.14
2019-05-02T19:59:33.146Z,12.84
2019-05-02T20:02:06.050Z,12.57
2019-05-02T20:04:37.779Z,12.80
2019-05-02T20:07:04.729Z,12.74
2019-05-02T20:09:38.047Z,12.37
2019-05-02T20:12:08.245Z,12.38
2019-05-02T20:14:38.254Z,12.28
2019-05-02T20:17:10.019Z,12.02
2019-05-02T20:19:42.208Z,12.13
2019-05-02T20:22:17.072Z,12.07
2019-05-02T20:25:05.702Z,11.89
2019-05-02T20:27:35.067Z,11.80
2019-05-02T20:30:05.083Z,11.71
2019-05-02T20:32:34.337Z,11.53
2019-05-02T20:35:03.657Z,11.44
2019-05-02T20:37:32.959Z,11.46
2019-05-02T20:40:02.748Z,11.41
2019-05-02T20:46:32.646Z,11.24
2019-05-02T20:49:32.136Z,11.16
2019-05-02T21:06:41.089Z,10.77
2019-05-02T21:13:32.761Z,10.69
2019-05-02T21:16:02.175Z,10.62
2019-05-02T21:18:34.192Z,10.54
2019-05-02T21:21:32.435Z,10.54
2019-05-02T21:24:32.761Z,10.50
2019-05-02T21:29:49.466Z,10.63
2019-05-02T21:32:33.862Z,10.81
2019-05-02T21:35:33.160Z,10.93
2019-05-02T21:38:32.722Z,10.99
2019-05-02T21:46:36.673Z,11.11
2019-05-02T21:49:29.870Z,11.35
2019-05-02T21:52:17.138Z,11.29
2019-05-02T21:57:43.042Z,11.45
2019-05-02T22:00:16.836Z,11.46
2019-05-02T22:03:32.475Z,11.46
2019-05-02T22:06:32.301Z,11.45
2019-05-02T22:09:32.345Z,11.47
2019-05-02T22:12:32.073Z,11.42
2019-05-02T22:15:02.325Z,11.37
2019-05-02T22:17:32.244Z,11.43
2019-05-02T22:20:01.958Z,11.44
2019-05-02T22:22:31.746Z,11.42
2019-05-02T22:25:32.777Z,11.42
2019-05-02T22:28:02.102Z,11.46
2019-05-02T22:30:34.100Z,11.41
2019-05-02T22:33:03.661Z,11.40
2019-05-02T22:35:32.923Z,11.59
2019-05-02T22:38:11.718Z,11.51
2019-05-02T22:40:42.035Z,11.57
2019-05-02T22:43:13.019Z,11.44
2019-05-02T22:45:42.324Z,11.60
2019-05-02T22:48:14.204Z,11.70
2019-05-02T22:50:42.659Z,11.31
2019-05-02T22:53:12.017Z,11.35
2019-05-02T22:55:43.097Z,11.62
2019-05-02T22:58:12.365Z,11.50
2019-05-02T23:00:41.738Z,11.61
2019-05-02T23:03:12.543Z,11.67
2019-05-02T23:05:42.275Z,11.57
2019-05-02T23:08:12.584Z,11.21
2019-05-02T23:10:41.919Z,11.29
2019-05-02T23:13:12.946Z,11.30
2019-05-02T23:15:42.715Z,11.40
2019-05-02T23:18:12.232Z,11.38
2019-05-02T23:20:42.171Z,11.37
2019-05-02T23:23:12.509Z,11.10
2019-05-02T23:25:55.202Z,11.34
2019-05-02T23:28:25.204Z,11.42
2019-05-02T23:30:54.443Z,11.23
2019-05-02T23:33:25.387Z,11.37
2019-05-02T23:35:54.630Z,11.06
2019-05-02T23:38:24.125Z,11.20
2019-05-02T23:40:53.396Z,11.25
2019-05-02T23:43:22.718Z,11.28
2019-05-02T23:45:51.956Z,11.46
2019-05-02T23:48:22.111Z,11.25
2019-05-02T23:50:52.099Z,11.34
2019-05-02T23:53:22.112Z,11.34
2019-05-02T23:55:51.447Z,11.28
2019-05-02T23:58:22.638Z,11.24
